sensor_id;sensor_type;location;lat;lon;timestamp;P1;durP1;ratioP1;P2;durP2;ratioP2
38879;SDS011;25887;30.194;-97.880;2023-05-27T00:01:24;18.08;;;9.85;;
38879;SDS011;25887;30.194;-97.880;2023-05-27T00:03:51;17.13;;;9.90;;
38879;SDS011;25887;30.194;-97.880;2023-05-27T00:06:17;20.27;;;10.38;;
38879;SDS011;25887;30.194;-97.880;2023-05-27T00:08:43;18.88;;;9.93;;
38879;SDS011;25887;30.194;-97.880;2023-05-27T00:11:10;19.25;;;9.68;;
38879;SDS011;25887;30.194;-97.880;2023-05-27T00:13:36;23.00;;;10.50;;
38879;SDS011;25887;30.194;-97.880;2023-05-27T00:16:02;15.57;;;9.73;;
38879;SDS011;25887;30.194;-97.880;2023-05-27T00:18:28;20.08;;;10.40;;
38879;SDS011;25887;30.194;-97.880;2023-05-27T00:20:58;18.38;;;9.63;;
38879;SDS011;25887;30.194;-97.880;2023-05-27T00:23:25;17.10;;;9.55;;
38879;SDS011;25887;30.194;-97.880;2023-05-27T00:25:51;18.63;;;10.40;;
38879;SDS011;25887;30.194;-97.880;2023-05-27T00:28:17;17.33;;;9.70;;
38879;SDS011;25887;30.194;-97.880;2023-05-27T00:30:44;20.13;;;10.57;;
38879;SDS011;25887;30.194;-97.880;2023-05-27T00:33:10;19.38;;;9.82;;
38879;SDS011;25887;30.194;-97.880;2023-05-27T00:35:36;19.13;;;9.60;;
38879;SDS011;25887;30.194;-97.880;2023-05-27T00:38:03;17.60;;;9.73;;
38879;SDS011;25887;30.194;-97.880;2023-05-27T00:40:30;17.35;;;9.73;;
38879;SDS011;25887;30.194;-97.880;2023-05-27T00:43:01;18.40;;;10.25;;
38879;SDS011;25887;30.194;-97.880;2023-05-27T00:45:28;18.90;;;9.80;;
38879;SDS011;25887;30.194;-97.880;2023-05-27T00:47:54;22.20;;;10.50;;
38879;SDS011;25887;30.194;-97.880;2023-05-27T00:50:20;22.17;;;11.02;;
38879;SDS011;25887;30.194;-97.880;2023-05-27T00:52:47;18.38;;;10.82;;
38879;SDS011;25887;30.194;-97.880;2023-05-27T00:55:14;19.10;;;10.43;;
38879;SDS011;25887;30.194;-97.880;2023-05-27T00:57:40;20.60;;;10.95;;
38879;SDS011;25887;30.194;-97.880;2023-05-27T01:00:07;19.98;;;11.48;;
38879;SDS011;25887;30.194;-97.880;2023-05-27T01:02:37;20.27;;;10.60;;
38879;SDS011;25887;30.194;-97.880;2023-05-27T01:05:11;20.02;;;11.23;;
38879;SDS011;25887;30.194;-97.880;2023-05-27T01:13:16;20.98;;;11.05;;
38879;SDS011;25887;30.194;-97.880;2023-05-27T01:16:09;23.50;;;11.70;;
38879;SDS011;25887;30.194;-97.880;2023-05-27T01:18:38;22.70;;;11.55;;
38879;SDS011;25887;30.194;-97.880;2023-05-27T01:21:10;24.30;;;11.32;;
38879;SDS011;25887;30.194;-97.880;2023-05-27T01:23:46;24.65;;;10.88;;
38879;SDS011;25887;30.194;-97.880;2023-05-27T01:26:15;22.52;;;11.57;;
38879;SDS011;25887;30.194;-97.880;2023-05-27T01:28:41;23.05;;;11.63;;
38879;SDS011;25887;30.194;-97.880;2023-05-27T01:34:01;24.25;;;12.55;;
38879;SDS011;25887;30.194;-97.880;2023-05-27T01:36:33;25.63;;;13.60;;
38879;SDS011;25887;30.194;-97.880;2023-05-27T01:39:07;30.35;;;14.40;;
38879;SDS011;25887;30.194;-97.880;2023-05-27T01:41:36;30.73;;;14.25;;
38879;SDS011;25887;30.194;-97.880;2023-05-27T01:44:05;25.85;;;13.45;;
38879;SDS011;25887;30.194;-97.880;2023-05-27T01:46:32;29.67;;;13.77;;
38879;SDS011;25887;30.194;-97.880;2023-05-27T01:48:59;23.35;;;12.70;;
38879;SDS011;25887;30.194;-97.880;2023-05-27T01:51:26;24.27;;;12.65;;
38879;SDS011;25887;30.194;-97.880;2023-05-27T01:53:52;23.58;;;11.40;;
38879;SDS011;25887;30.194;-97.880;2023-05-27T01:56:18;24.80;;;13.05;;
38879;SDS011;25887;30.194;-97.880;2023-05-27T01:58:45;26.20;;;11.30;;
38879;SDS011;25887;30.194;-97.880;2023-05-27T02:01:19;27.48;;;12.90;;
38879;SDS011;25887;30.194;-97.880;2023-05-27T02:03:47;21.92;;;12.15;;
38879;SDS011;25887;30.194;-97.880;2023-05-27T02:06:13;26.33;;;12.40;;
38879;SDS011;25887;30.194;-97.880;2023-05-27T02:08:40;20.08;;;10.77;;
38879;SDS011;25887;30.194;-97.880;2023-05-27T02:11:06;23.92;;;12.00;;
38879;SDS011;25887;30.194;-97.880;2023-05-27T02:13:32;23.88;;;12.23;;
38879;SDS011;25887;30.194;-97.880;2023-05-27T02:15:58;21.52;;;11.48;;
38879;SDS011;25887;30.194;-97.880;2023-05-27T02:18:25;24.58;;;12.32;;
38879;SDS011;25887;30.194;-97.880;2023-05-27T02:20:51;26.35;;;12.27;;
38879;SDS011;25887;30.194;-97.880;2023-05-27T02:23:17;22.58;;;11.85;;
38879;SDS011;25887;30.194;-97.880;2023-05-27T02:25:45;23.25;;;11.10;;
38879;SDS011;25887;30.194;-97.880;2023-05-27T02:28:13;22.25;;;11.50;;
38879;SDS011;25887;30.194;-97.880;2023-05-27T02:30:39;24.48;;;12.45;;
38879;SDS011;25887;30.194;-97.880;2023-05-27T02:33:05;24.15;;;12.10;;
38879;SDS011;25887;30.194;-97.880;2023-05-27T02:35:32;24.27;;;12.05;;
38879;SDS011;25887;30.194;-97.880;2023-05-27T02:37:58;22.15;;;11.00;;
38879;SDS011;25887;30.194;-97.880;2023-05-27T02:40:28;23.08;;;12.00;;
38879;SDS011;25887;30.194;-97.880;2023-05-27T02:42:57;26.75;;;12.45;;
38879;SDS011;25887;30.194;-97.880;2023-05-27T02:45:24;31.17;;;13.32;;
38879;SDS011;25887;30.194;-97.880;2023-05-27T02:47:51;24.75;;;12.57;;
38879;SDS011;25887;30.194;-97.880;2023-05-27T02:50:17;27.02;;;12.63;;
38879;SDS011;25887;30.194;-97.880;2023-05-27T02:52:43;25.63;;;12.82;;
38879;SDS011;25887;30.194;-97.880;2023-05-27T02:55:11;25.25;;;11.90;;
38879;SDS011;25887;30.194;-97.880;2023-05-27T02:57:38;23.45;;;11.75;;
38879;SDS011;25887;30.194;-97.880;2023-05-27T03:00:04;24.27;;;12.27;;
38879;SDS011;25887;30.194;-97.880;2023-05-27T03:02:34;21.30;;;12.20;;
38879;SDS011;25887;30.194;-97.880;2023-05-27T03:05:00;22.33;;;11.80;;
38879;SDS011;25887;30.194;-97.880;2023-05-27T03:07:27;21.17;;;11.85;;
38879;SDS011;25887;30.194;-97.880;2023-05-27T03:09:56;24.05;;;12.05;;
38879;SDS011;25887;30.194;-97.880;2023-05-27T03:12:23;22.20;;;11.65;;
38879;SDS011;25887;30.194;-97.880;2023-05-27T03:14:50;25.77;;;12.38;;
38879;SDS011;25887;30.194;-97.880;2023-05-27T03:17:18;25.90;;;12.60;;
38879;SDS011;25887;30.194;-97.880;2023-05-27T03:19:45;21.45;;;11.77;;
38879;SDS011;25887;30.194;-97.880;2023-05-27T03:22:12;24.27;;;11.82;;
38879;SDS011;25887;30.194;-97.880;2023-05-27T03:24:38;23.83;;;11.45;;
38879;SDS011;25887;30.194;-97.880;2023-05-27T03:27:05;24.95;;;12.70;;
38879;SDS011;25887;30.194;-97.880;2023-05-27T03:29:31;21.08;;;11.45;;
38879;SDS011;25887;30.194;-97.880;2023-05-27T03:31:58;24.23;;;12.50;;
38879;SDS011;25887;30.194;-97.880;2023-05-27T03:34:24;27.00;;;12.45;;
38879;SDS011;25887;30.194;-97.880;2023-05-27T03:36:50;22.98;;;11.38;;
38879;SDS011;25887;30.194;-97.880;2023-05-27T03:39:17;25.85;;;12.95;;
38879;SDS011;25887;30.194;-97.880;2023-05-27T03:41:43;25.10;;;12.00;;
38879;SDS011;25887;30.194;-97.880;2023-05-27T03:44:10;29.42;;;12.80;;
38879;SDS011;25887;30.194;-97.880;2023-05-27T03:46:36;21.65;;;11.98;;
38879;SDS011;25887;30.194;-97.880;2023-05-27T03:49:02;22.90;;;11.73;;
38879;SDS011;25887;30.194;-97.880;2023-05-27T03:51:28;24.15;;;12.68;;
38879;SDS011;25887;30.194;-97.880;2023-05-27T03:53:54;26.40;;;11.85;;
38879;SDS011;25887;30.194;-97.880;2023-05-27T03:56:20;26.48;;;13.13;;
38879;SDS011;25887;30.194;-97.880;2023-05-27T03:58:47;24.20;;;12.63;;
38879;SDS011;25887;30.194;-97.880;2023-05-27T04:01:15;23.55;;;12.45;;
38879;SDS011;25887;30.194;-97.880;2023-05-27T04:03:45;23.60;;;12.63;;
38879;SDS011;25887;30.194;-97.880;2023-05-27T04:06:11;23.33;;;13.00;;
38879;SDS011;25887;30.194;-97.880;2023-05-27T04:08:38;25.27;;;11.93;;
38879;SDS011;25887;30.194;-97.880;2023-05-27T04:11:06;26.63;;;12.77;;
38879;SDS011;25887;30.194;-97.880;2023-05-27T04:13:37;23.48;;;12.00;;
38879;SDS011;25887;30.194;-97.880;2023-05-27T04:16:04;23.65;;;12.35;;
38879;SDS011;25887;30.194;-97.880;2023-05-27T04:18:30;20.13;;;11.38;;
38879;SDS011;25887;30.194;-97.880;2023-05-27T04:24:25;24.30;;;11.70;;
38879;SDS011;25887;30.194;-97.880;2023-05-27T04:30:13;29.50;;;11.88;;
38879;SDS011;25887;30.194;-97.880;2023-05-27T04:32:39;24.08;;;11.48;;
38879;SDS011;25887;30.194;-97.880;2023-05-27T04:35:24;26.65;;;12.25;;
38879;SDS011;25887;30.194;-97.880;2023-05-27T04:37:52;23.55;;;12.45;;
38879;SDS011;25887;30.194;-97.880;2023-05-27T04:43:20;26.75;;;12.93;;
38879;SDS011;25887;30.194;-97.880;2023-05-27T04:45:47;28.95;;;12.18;;
38879;SDS011;25887;30.194;-97.880;2023-05-27T04:48:13;21.48;;;12.48;;
38879;SDS011;25887;30.194;-97.880;2023-05-27T04:50:42;26.10;;;11.95;;
38879;SDS011;25887;30.194;-97.880;2023-05-27T04:53:09;28.33;;;12.45;;
38879;SDS011;25887;30.194;-97.880;2023-05-27T04:55:35;23.85;;;12.05;;
38879;SDS011;25887;30.194;-97.880;2023-05-27T04:58:02;24.77;;;12.43;;
38879;SDS011;25887;30.194;-97.880;2023-05-27T05:00:29;24.30;;;11.13;;
38879;SDS011;25887;30.194;-97.880;2023-05-27T05:03:07;23.27;;;11.55;;
38879;SDS011;25887;30.194;-97.880;2023-05-27T05:05:34;23.73;;;11.82;;
38879;SDS011;25887;30.194;-97.880;2023-05-27T05:08:00;23.60;;;12.40;;
38879;SDS011;25887;30.194;-97.880;2023-05-27T05:10:26;22.88;;;11.88;;
38879;SDS011;25887;30.194;-97.880;2023-05-27T05:12:55;28.17;;;12.20;;
38879;SDS011;25887;30.194;-97.880;2023-05-27T05:15:21;23.65;;;11.52;;
38879;SDS011;25887;30.194;-97.880;2023-05-27T05:17:47;26.75;;;12.10;;
38879;SDS011;25887;30.194;-97.880;2023-05-27T05:20:13;23.73;;;12.77;;
38879;SDS011;25887;30.194;-97.880;2023-05-27T05:22:40;30.00;;;12.77;;
38879;SDS011;25887;30.194;-97.880;2023-05-27T05:25:07;28.65;;;13.55;;
38879;SDS011;25887;30.194;-97.880;2023-05-27T05:27:34;25.35;;;12.10;;
38879;SDS011;25887;30.194;-97.880;2023-05-27T05:30:01;26.85;;;12.65;;
38879;SDS011;25887;30.194;-97.880;2023-05-27T05:32:28;24.65;;;11.35;;
38879;SDS011;25887;30.194;-97.880;2023-05-27T05:34:54;27.35;;;12.40;;
38879;SDS011;25887;30.194;-97.880;2023-05-27T05:37:20;27.52;;;13.20;;
38879;SDS011;25887;30.194;-97.880;2023-05-27T05:39:46;23.00;;;12.32;;
38879;SDS011;25887;30.194;-97.880;2023-05-27T05:42:13;25.88;;;12.30;;
38879;SDS011;25887;30.194;-97.880;2023-05-27T05:44:39;25.95;;;11.77;;
38879;SDS011;25887;30.194;-97.880;2023-05-27T05:47:07;24.85;;;12.45;;
38879;SDS011;25887;30.194;-97.880;2023-05-27T05:49:33;25.27;;;12.40;;
38879;SDS011;25887;30.194;-97.880;2023-05-27T05:51:59;27.02;;;12.75;;
38879;SDS011;25887;30.194;-97.880;2023-05-27T05:54:25;23.92;;;12.95;;
38879;SDS011;25887;30.194;-97.880;2023-05-27T05:56:52;24.40;;;11.55;;
38879;SDS011;25887;30.194;-97.880;2023-05-27T05:59:18;21.75;;;11.57;;
38879;SDS011;25887;30.194;-97.880;2023-05-27T06:01:44;25.35;;;12.13;;
38879;SDS011;25887;30.194;-97.880;2023-05-27T06:04:10;23.98;;;12.10;;
38879;SDS011;25887;30.194;-97.880;2023-05-27T06:06:36;29.80;;;13.13;;
38879;SDS011;25887;30.194;-97.880;2023-05-27T06:09:02;26.02;;;13.18;;
38879;SDS011;25887;30.194;-97.880;2023-05-27T06:11:29;24.27;;;11.50;;
38879;SDS011;25887;30.194;-97.880;2023-05-27T06:13:55;22.95;;;11.40;;
38879;SDS011;25887;30.194;-97.880;2023-05-27T06:16:21;23.40;;;12.30;;
38879;SDS011;25887;30.194;-97.880;2023-05-27T06:18:47;24.77;;;11.90;;
38879;SDS011;25887;30.194;-97.880;2023-05-27T06:21:14;27.15;;;12.90;;
38879;SDS011;25887;30.194;-97.880;2023-05-27T06:23:40;25.95;;;12.82;;
38879;SDS011;25887;30.194;-97.880;2023-05-27T06:26:06;21.60;;;11.20;;
38879;SDS011;25887;30.194;-97.880;2023-05-27T06:28:32;27.50;;;11.77;;
38879;SDS011;25887;30.194;-97.880;2023-05-27T06:30:58;29.27;;;12.90;;
38879;SDS011;25887;30.194;-97.880;2023-05-27T06:33:25;23.83;;;11.93;;
38879;SDS011;25887;30.194;-97.880;2023-05-27T06:35:51;24.95;;;12.50;;
38879;SDS011;25887;30.194;-97.880;2023-05-27T06:38:17;22.30;;;11.60;;
38879;SDS011;25887;30.194;-97.880;2023-05-27T06:40:43;24.85;;;12.43;;
38879;SDS011;25887;30.194;-97.880;2023-05-27T06:43:09;26.83;;;11.73;;
38879;SDS011;25887;30.194;-97.880;2023-05-27T06:45:35;21.42;;;11.07;;
38879;SDS011;25887;30.194;-97.880;2023-05-27T06:48:02;30.08;;;12.18;;
38879;SDS011;25887;30.194;-97.880;2023-05-27T06:50:28;28.73;;;13.48;;
38879;SDS011;25887;30.194;-97.880;2023-05-27T06:52:54;25.33;;;12.70;;
38879;SDS011;25887;30.194;-97.880;2023-05-27T06:55:20;26.90;;;12.60;;
38879;SDS011;25887;30.194;-97.880;2023-05-27T06:57:46;20.38;;;11.55;;
38879;SDS011;25887;30.194;-97.880;2023-05-27T07:00:12;25.38;;;12.13;;
38879;SDS011;25887;30.194;-97.880;2023-05-27T07:02:39;23.65;;;12.57;;
38879;SDS011;25887;30.194;-97.880;2023-05-27T07:05:05;26.15;;;12.45;;
38879;SDS011;25887;30.194;-97.880;2023-05-27T07:07:31;25.70;;;11.18;;
38879;SDS011;25887;30.194;-97.880;2023-05-27T07:09:58;26.10;;;12.32;;
38879;SDS011;25887;30.194;-97.880;2023-05-27T07:12:24;23.50;;;11.88;;
38879;SDS011;25887;30.194;-97.880;2023-05-27T07:14:50;21.98;;;11.52;;
38879;SDS011;25887;30.194;-97.880;2023-05-27T07:17:16;22.48;;;11.73;;
38879;SDS011;25887;30.194;-97.880;2023-05-27T07:19:42;22.65;;;12.07;;
38879;SDS011;25887;30.194;-97.880;2023-05-27T07:22:08;22.17;;;11.82;;
38879;SDS011;25887;30.194;-97.880;2023-05-27T07:24:35;22.05;;;11.52;;
38879;SDS011;25887;30.194;-97.880;2023-05-27T07:27:01;24.98;;;11.43;;
38879;SDS011;25887;30.194;-97.880;2023-05-27T07:29:27;23.50;;;11.00;;
38879;SDS011;25887;30.194;-97.880;2023-05-27T07:31:53;26.85;;;11.63;;
38879;SDS011;25887;30.194;-97.880;2023-05-27T07:34:20;20.67;;;11.68;;
38879;SDS011;25887;30.194;-97.880;2023-05-27T07:36:46;20.42;;;11.60;;
38879;SDS011;25887;30.194;-97.880;2023-05-27T07:39:13;24.05;;;11.52;;
38879;SDS011;25887;30.194;-97.880;2023-05-27T07:41:39;25.48;;;12.05;;
38879;SDS011;25887;30.194;-97.880;2023-05-27T07:44:07;25.85;;;11.93;;
38879;SDS011;25887;30.194;-97.880;2023-05-27T07:46:33;25.88;;;11.82;;
38879;SDS011;25887;30.194;-97.880;2023-05-27T07:49:00;24.77;;;11.43;;
38879;SDS011;25887;30.194;-97.880;2023-05-27T07:51:26;24.55;;;11.90;;
38879;SDS011;25887;30.194;-97.880;2023-05-27T07:53:52;26.80;;;11.88;;
38879;SDS011;25887;30.194;-97.880;2023-05-27T07:56:20;23.67;;;11.10;;
38879;SDS011;25887;30.194;-97.880;2023-05-27T07:58:46;24.00;;;12.25;;
38879;SDS011;25887;30.194;-97.880;2023-05-27T08:01:12;21.13;;;10.13;;
38879;SDS011;25887;30.194;-97.880;2023-05-27T08:03:38;22.48;;;12.23;;
38879;SDS011;25887;30.194;-97.880;2023-05-27T08:06:05;25.20;;;11.10;;
38879;SDS011;25887;30.194;-97.880;2023-05-27T08:08:32;29.15;;;10.90;;
38879;SDS011;25887;30.194;-97.880;2023-05-27T08:10:58;23.95;;;11.90;;
38879;SDS011;25887;30.194;-97.880;2023-05-27T08:13:25;23.98;;;12.18;;
38879;SDS011;25887;30.194;-97.880;2023-05-27T08:15:51;24.35;;;12.02;;
38879;SDS011;25887;30.194;-97.880;2023-05-27T08:18:17;22.98;;;11.40;;
38879;SDS011;25887;30.194;-97.880;2023-05-27T08:20:43;24.75;;;11.40;;
38879;SDS011;25887;30.194;-97.880;2023-05-27T08:23:10;23.30;;;11.43;;
38879;SDS011;25887;30.194;-97.880;2023-05-27T08:25:36;23.73;;;11.50;;
38879;SDS011;25887;30.194;-97.880;2023-05-27T08:28:02;25.00;;;11.20;;
38879;SDS011;25887;30.194;-97.880;2023-05-27T08:30:28;23.88;;;10.85;;
38879;SDS011;25887;30.194;-97.880;2023-05-27T08:32:55;23.77;;;11.68;;
38879;SDS011;25887;30.194;-97.880;2023-05-27T08:35:22;22.17;;;11.23;;
38879;SDS011;25887;30.194;-97.880;2023-05-27T08:37:48;21.98;;;11.07;;
38879;SDS011;25887;30.194;-97.880;2023-05-27T08:40:15;25.40;;;12.02;;
38879;SDS011;25887;30.194;-97.880;2023-05-27T08:42:43;26.00;;;11.05;;
38879;SDS011;25887;30.194;-97.880;2023-05-27T08:45:11;23.48;;;11.77;;
38879;SDS011;25887;30.194;-97.880;2023-05-27T08:47:38;21.60;;;10.23;;
38879;SDS011;25887;30.194;-97.880;2023-05-27T08:50:05;27.55;;;11.75;;
38879;SDS011;25887;30.194;-97.880;2023-05-27T08:52:32;20.50;;;10.38;;
38879;SDS011;25887;30.194;-97.880;2023-05-27T08:54:59;23.67;;;11.57;;
38879;SDS011;25887;30.194;-97.880;2023-05-27T08:57:30;24.38;;;10.90;;
38879;SDS011;25887;30.194;-97.880;2023-05-27T08:59:58;24.15;;;11.95;;
38879;SDS011;25887;30.194;-97.880;2023-05-27T09:02:25;24.73;;;11.88;;
38879;SDS011;25887;30.194;-97.880;2023-05-27T09:04:53;24.10;;;11.52;;
38879;SDS011;25887;30.194;-97.880;2023-05-27T09:07:20;22.52;;;11.02;;
38879;SDS011;25887;30.194;-97.880;2023-05-27T09:09:57;22.55;;;11.45;;
38879;SDS011;25887;30.194;-97.880;2023-05-27T09:12:24;26.23;;;11.13;;
38879;SDS011;25887;30.194;-97.880;2023-05-27T09:14:52;21.27;;;10.73;;
38879;SDS011;25887;30.194;-97.880;2023-05-27T09:17:22;24.08;;;10.65;;
38879;SDS011;25887;30.194;-97.880;2023-05-27T09:19:51;24.17;;;11.38;;
38879;SDS011;25887;30.194;-97.880;2023-05-27T09:22:22;22.90;;;11.27;;
38879;SDS011;25887;30.194;-97.880;2023-05-27T09:24:52;24.42;;;11.52;;
38879;SDS011;25887;30.194;-97.880;2023-05-27T09:27:27;18.90;;;9.65;;
38879;SDS011;25887;30.194;-97.880;2023-05-27T09:29:55;24.00;;;11.60;;
38879;SDS011;25887;30.194;-97.880;2023-05-27T09:32:30;29.48;;;10.50;;
38879;SDS011;25887;30.194;-97.880;2023-05-27T09:34:57;25.00;;;10.43;;
38879;SDS011;25887;30.194;-97.880;2023-05-27T09:37:24;23.73;;;10.57;;
38879;SDS011;25887;30.194;-97.880;2023-05-27T09:39:57;22.17;;;10.80;;
38879;SDS011;25887;30.194;-97.880;2023-05-27T09:42:40;23.10;;;10.68;;
38879;SDS011;25887;30.194;-97.880;2023-05-27T09:45:11;22.92;;;10.80;;
38879;SDS011;25887;30.194;-97.880;2023-05-27T09:47:45;26.30;;;11.75;;
38879;SDS011;25887;30.194;-97.880;2023-05-27T09:50:14;25.88;;;11.15;;
38879;SDS011;25887;30.194;-97.880;2023-05-27T09:52:43;19.58;;;10.70;;
38879;SDS011;25887;30.194;-97.880;2023-05-27T09:55:11;23.73;;;11.15;;
38879;SDS011;25887;30.194;-97.880;2023-05-27T09:57:40;23.67;;;10.73;;
38879;SDS011;25887;30.194;-97.880;2023-05-27T10:00:07;25.80;;;11.15;;
38879;SDS011;25887;30.194;-97.880;2023-05-27T10:02:41;22.33;;;10.93;;
38879;SDS011;25887;30.194;-97.880;2023-05-27T10:05:08;21.33;;;11.32;;
38879;SDS011;25887;30.194;-97.880;2023-05-27T10:07:38;24.55;;;10.57;;
38879;SDS011;25887;30.194;-97.880;2023-05-27T10:10:06;22.27;;;11.25;;
38879;SDS011;25887;30.194;-97.880;2023-05-27T10:12:41;21.33;;;10.57;;
38879;SDS011;25887;30.194;-97.880;2023-05-27T10:15:29;24.33;;;11.15;;
38879;SDS011;25887;30.194;-97.880;2023-05-27T10:18:03;23.85;;;11.05;;
38879;SDS011;25887;30.194;-97.880;2023-05-27T10:23:11;25.00;;;11.32;;
38879;SDS011;25887;30.194;-97.880;2023-05-27T10:28:05;18.92;;;10.02;;
38879;SDS011;25887;30.194;-97.880;2023-05-27T10:30:44;22.20;;;10.90;;
38879;SDS011;25887;30.194;-97.880;2023-05-27T10:33:13;23.77;;;10.52;;
38879;SDS011;25887;30.194;-97.880;2023-05-27T10:35:40;23.38;;;10.73;;
38879;SDS011;25887;30.194;-97.880;2023-05-27T10:38:16;21.98;;;11.00;;
38879;SDS011;25887;30.194;-97.880;2023-05-27T10:40:46;22.98;;;11.75;;
38879;SDS011;25887;30.194;-97.880;2023-05-27T10:43:15;22.85;;;10.30;;
38879;SDS011;25887;30.194;-97.880;2023-05-27T10:45:42;21.00;;;10.02;;
38879;SDS011;25887;30.194;-97.880;2023-05-27T10:48:15;22.35;;;10.82;;
38879;SDS011;25887;30.194;-97.880;2023-05-27T10:53:16;22.77;;;10.27;;
38879;SDS011;25887;30.194;-97.880;2023-05-27T10:55:49;23.92;;;9.82;;
38879;SDS011;25887;30.194;-97.880;2023-05-27T10:58:17;21.08;;;10.93;;
38879;SDS011;25887;30.194;-97.880;2023-05-27T11:00:50;24.15;;;10.90;;
38879;SDS011;25887;30.194;-97.880;2023-05-27T11:03:24;26.30;;;9.93;;
38879;SDS011;25887;30.194;-97.880;2023-05-27T11:06:05;20.90;;;10.38;;
38879;SDS011;25887;30.194;-97.880;2023-05-27T11:08:32;24.73;;;10.38;;
38879;SDS011;25887;30.194;-97.880;2023-05-27T11:11:00;23.63;;;11.18;;
38879;SDS011;25887;30.194;-97.880;2023-05-27T11:13:35;22.33;;;11.30;;
38879;SDS011;25887;30.194;-97.880;2023-05-27T11:16:05;23.02;;;11.13;;
38879;SDS011;25887;30.194;-97.880;2023-05-27T11:18:36;21.83;;;10.57;;
38879;SDS011;25887;30.194;-97.880;2023-05-27T11:21:04;20.27;;;9.60;;
38879;SDS011;25887;30.194;-97.880;2023-05-27T11:26:23;20.33;;;9.80;;
38879;SDS011;25887;30.194;-97.880;2023-05-27T11:28:50;19.15;;;9.55;;
38879;SDS011;25887;30.194;-97.880;2023-05-27T11:31:21;23.40;;;11.43;;
38879;SDS011;25887;30.194;-97.880;2023-05-27T11:33:53;24.73;;;11.05;;
38879;SDS011;25887;30.194;-97.880;2023-05-27T11:36:19;19.98;;;10.25;;
38879;SDS011;25887;30.194;-97.880;2023-05-27T11:41:28;22.65;;;9.90;;
38879;SDS011;25887;30.194;-97.880;2023-05-27T11:43:56;22.42;;;9.55;;
38879;SDS011;25887;30.194;-97.880;2023-05-27T11:46:36;20.17;;;10.25;;
38879;SDS011;25887;30.194;-97.880;2023-05-27T11:49:10;19.98;;;10.02;;
38879;SDS011;25887;30.194;-97.880;2023-05-27T11:51:38;22.20;;;10.35;;
38879;SDS011;25887;30.194;-97.880;2023-05-27T11:54:06;19.35;;;10.15;;
38879;SDS011;25887;30.194;-97.880;2023-05-27T11:56:33;23.42;;;10.68;;
38879;SDS011;25887;30.194;-97.880;2023-05-27T11:58:59;29.55;;;10.85;;
38879;SDS011;25887;30.194;-97.880;2023-05-27T12:01:25;21.20;;;10.20;;
38879;SDS011;25887;30.194;-97.880;2023-05-27T12:03:51;23.92;;;9.77;;
38879;SDS011;25887;30.194;-97.880;2023-05-27T12:06:18;23.50;;;10.35;;
38879;SDS011;25887;30.194;-97.880;2023-05-27T12:08:44;24.33;;;10.82;;
38879;SDS011;25887;30.194;-97.880;2023-05-27T12:11:10;20.90;;;10.88;;
38879;SDS011;25887;30.194;-97.880;2023-05-27T12:13:36;23.25;;;10.00;;
38879;SDS011;25887;30.194;-97.880;2023-05-27T12:16:03;21.20;;;10.30;;
38879;SDS011;25887;30.194;-97.880;2023-05-27T12:22:04;25.88;;;10.95;;
38879;SDS011;25887;30.194;-97.880;2023-05-27T12:49:06;21.42;;;10.02;;
38879;SDS011;25887;30.194;-97.880;2023-05-27T13:01:51;22.95;;;10.25;;
38879;SDS011;25887;30.194;-97.880;2023-05-27T13:04:17;22.20;;;9.88;;
38879;SDS011;25887;30.194;-97.880;2023-05-27T13:06:43;21.25;;;10.48;;
38879;SDS011;25887;30.194;-97.880;2023-05-27T13:09:09;25.30;;;11.02;;
38879;SDS011;25887;30.194;-97.880;2023-05-27T13:11:35;23.67;;;10.85;;
38879;SDS011;25887;30.194;-97.880;2023-05-27T13:14:01;24.45;;;11.68;;
38879;SDS011;25887;30.194;-97.880;2023-05-27T13:16:35;24.05;;;11.98;;
38879;SDS011;25887;30.194;-97.880;2023-05-27T13:19:01;21.92;;;10.55;;
38879;SDS011;25887;30.194;-97.880;2023-05-27T13:21:27;20.83;;;10.65;;
38879;SDS011;25887;30.194;-97.880;2023-05-27T13:23:54;26.00;;;12.35;;
38879;SDS011;25887;30.194;-97.880;2023-05-27T13:29:10;22.55;;;11.18;;
38879;SDS011;25887;30.194;-97.880;2023-05-27T13:31:36;27.63;;;11.57;;
38879;SDS011;25887;30.194;-97.880;2023-05-27T13:34:02;25.77;;;11.35;;
38879;SDS011;25887;30.194;-97.880;2023-05-27T13:36:28;25.23;;;11.88;;
38879;SDS011;25887;30.194;-97.880;2023-05-27T13:38:54;26.38;;;12.45;;
38879;SDS011;25887;30.194;-97.880;2023-05-27T13:41:20;24.38;;;10.40;;
38879;SDS011;25887;30.194;-97.880;2023-05-27T13:43:47;22.13;;;10.70;;
38879;SDS011;25887;30.194;-97.880;2023-05-27T13:46:13;26.15;;;11.25;;
38879;SDS011;25887;30.194;-97.880;2023-05-27T13:48:39;21.38;;;10.90;;
38879;SDS011;25887;30.194;-97.880;2023-05-27T13:51:05;24.33;;;11.45;;
38879;SDS011;25887;30.194;-97.880;2023-05-27T13:53:33;28.00;;;11.82;;
38879;SDS011;25887;30.194;-97.880;2023-05-27T13:55:59;24.95;;;11.23;;
38879;SDS011;25887;30.194;-97.880;2023-05-27T13:58:25;22.60;;;11.43;;
38879;SDS011;25887;30.194;-97.880;2023-05-27T14:00:53;20.13;;;10.65;;
38879;SDS011;25887;30.194;-97.880;2023-05-27T14:03:20;23.80;;;11.05;;
38879;SDS011;25887;30.194;-97.880;2023-05-27T14:05:48;20.27;;;9.13;;
38879;SDS011;25887;30.194;-97.880;2023-05-27T14:08:15;22.80;;;9.50;;
38879;SDS011;25887;30.194;-97.880;2023-05-27T14:10:41;18.63;;;9.38;;
38879;SDS011;25887;30.194;-97.880;2023-05-27T14:13:08;18.77;;;9.65;;
38879;SDS011;25887;30.194;-97.880;2023-05-27T14:15:34;19.95;;;9.68;;
38879;SDS011;25887;30.194;-97.880;2023-05-27T14:18:02;22.20;;;9.73;;
38879;SDS011;25887;30.194;-97.880;2023-05-27T14:20:31;17.33;;;8.73;;
38879;SDS011;25887;30.194;-97.880;2023-05-27T14:22:58;16.75;;;8.00;;
38879;SDS011;25887;30.194;-97.880;2023-05-27T14:25:27;14.05;;;7.93;;
38879;SDS011;25887;30.194;-97.880;2023-05-27T14:27:53;14.63;;;8.35;;
38879;SDS011;25887;30.194;-97.880;2023-05-27T14:30:22;18.13;;;8.50;;
38879;SDS011;25887;30.194;-97.880;2023-05-27T14:32:49;15.50;;;7.57;;
38879;SDS011;25887;30.194;-97.880;2023-05-27T14:35:16;20.02;;;7.75;;
38879;SDS011;25887;30.194;-97.880;2023-05-27T14:37:42;19.08;;;7.28;;
38879;SDS011;25887;30.194;-97.880;2023-05-27T14:40:09;16.45;;;8.60;;
38879;SDS011;25887;30.194;-97.880;2023-05-27T14:42:36;12.48;;;7.15;;
38879;SDS011;25887;30.194;-97.880;2023-05-27T14:45:02;11.40;;;5.88;;
38879;SDS011;25887;30.194;-97.880;2023-05-27T14:47:29;11.02;;;6.13;;
38879;SDS011;25887;30.194;-97.880;2023-05-27T14:50:01;14.57;;;6.63;;
38879;SDS011;25887;30.194;-97.880;2023-05-27T14:52:27;12.15;;;6.32;;
38879;SDS011;25887;30.194;-97.880;2023-05-27T14:54:54;12.68;;;7.13;;
38879;SDS011;25887;30.194;-97.880;2023-05-27T14:57:20;11.57;;;6.65;;
38879;SDS011;25887;30.194;-97.880;2023-05-27T14:59:46;13.65;;;7.03;;
38879;SDS011;25887;30.194;-97.880;2023-05-27T15:02:12;13.85;;;7.30;;
38879;SDS011;25887;30.194;-97.880;2023-05-27T15:04:41;13.32;;;7.03;;
38879;SDS011;25887;30.194;-97.880;2023-05-27T15:07:07;12.07;;;6.68;;
38879;SDS011;25887;30.194;-97.880;2023-05-27T15:09:35;13.63;;;7.30;;
38879;SDS011;25887;30.194;-97.880;2023-05-27T15:12:01;16.80;;;8.10;;
38879;SDS011;25887;30.194;-97.880;2023-05-27T15:14:27;15.18;;;7.32;;